createdAt,value
2023-03-05T00:01:24.380Z,-3.35
2023-03-05T00:03:53.272Z,-3.38
2023-03-05T00:06:21.815Z,-3.35
2023-03-05T00:08:50.150Z,-3.44
2023-03-05T00:11:18.246Z,-3.35
2023-03-05T00:13:48.015Z,-3.33
2023-03-05T00:16:17.272Z,-3.37
2023-03-05T00:18:46.370Z,-3.30
2023-03-05T00:21:20.662Z,-3.36
2023-03-05T00:23:50.699Z,-3.36
2023-03-05T00:26:18.631Z,-3.37
2023-03-05T00:28:49.975Z,-3.49
2023-03-05T00:31:18.339Z,-3.54
2023-03-05T00:33:46.447Z,-3.45
2023-03-05T00:36:14.314Z,-3.41
2023-03-05T00:38:42.079Z,-3.48
2023-03-05T00:41:10.100Z,-3.54
2023-03-05T00:43:37.830Z,-3.61
2023-03-05T00:46:07.270Z,-3.65
2023-03-05T00:48:35.281Z,-3.66
2023-03-05T00:51:03.688Z,-3.65
2023-03-05T00:53:31.920Z,-3.72
2023-03-05T00:55:59.882Z,-3.71
2023-03-05T00:58:27.825Z,-3.74
2023-03-05T01:00:59.194Z,-3.71
2023-03-05T01:03:28.771Z,-3.86
2023-03-05T01:05:56.710Z,-3.87
2023-03-05T01:08:24.895Z,-3.93
2023-03-05T01:10:53.154Z,-3.98
2023-03-05T01:13:21.470Z,-4.10
2023-03-05T01:15:51.022Z,-4.05
2023-03-05T01:18:19.551Z,-4.15
2023-03-05T01:20:49.301Z,-4.09
2023-03-05T01:23:17.816Z,-4.15
2023-03-05T01:25:45.719Z,-4.17
2023-03-05T01:28:14.207Z,-4.17
2023-03-05T01:30:41.948Z,-4.19
2023-03-05T01:33:09.720Z,-4.29
2023-03-05T01:35:37.479Z,-4.33
2023-03-05T01:38:06.644Z,-4.36
2023-03-05T01:40:34.648Z,-4.44
2023-03-05T01:43:20.231Z,-4.50
2023-03-05T01:46:34.660Z,-4.54
2023-03-05T01:49:18.520Z,-4.58
2023-03-05T01:51:52.541Z,-4.61
2023-03-05T01:54:25.650Z,-4.63
2023-03-05T01:56:57.515Z,-4.55
2023-03-05T01:59:27.590Z,-4.53
2023-03-05T02:01:58.866Z,-4.51
2023-03-05T02:04:33.560Z,-4.61
2023-03-05T02:07:01.953Z,-4.65
2023-03-05T02:09:31.138Z,-4.69
2023-03-05T02:11:59.238Z,-4.72
2023-03-05T02:14:28.055Z,-4.84
2023-03-05T02:16:55.895Z,-4.81
2023-03-05T02:19:23.719Z,-4.77
2023-03-05T02:21:53.002Z,-4.88
2023-03-05T02:24:35.289Z,-5.06
2023-03-05T02:27:05.885Z,-5.09
2023-03-05T02:29:35.068Z,-5.22
2023-03-05T02:32:03.516Z,-5.16
2023-03-05T02:34:31.531Z,-5.14
2023-03-05T02:37:02.614Z,-5.12
2023-03-05T02:39:30.556Z,-5.14
2023-03-05T02:41:58.496Z,-5.13
2023-03-05T02:44:27.091Z,-5.20
2023-03-05T02:46:54.851Z,-5.23
2023-03-05T02:49:22.747Z,-5.26
2023-03-05T02:51:50.602Z,-5.38
2023-03-05T02:54:19.728Z,-5.64
2023-03-05T02:56:47.577Z,-5.64
2023-03-05T02:59:15.505Z,-5.44
2023-03-05T03:01:43.291Z,-5.23
2023-03-05T03:04:11.020Z,-5.33
2023-03-05T03:06:38.763Z,-5.31
2023-03-05T03:09:06.744Z,-5.39
2023-03-05T03:11:35.903Z,-5.39
2023-03-05T03:14:03.679Z,-5.43
2023-03-05T03:16:31.444Z,-5.42
2023-03-05T03:18:59.298Z,-5.30
2023-03-05T03:21:27.324Z,-5.32
2023-03-05T03:23:55.100Z,-5.35
2023-03-05T03:26:22.923Z,-5.41
2023-03-05T03:28:52.192Z,-5.51
2023-03-05T03:31:20.391Z,-5.50
2023-03-05T03:33:48.616Z,-5.44
2023-03-05T03:36:16.366Z,-5.27
2023-03-05T03:38:44.206Z,-5.34
2023-03-05T03:41:11.932Z,-5.33
2023-03-05T03:43:39.734Z,-5.33
2023-03-05T03:46:08.977Z,-5.34
2023-03-05T03:48:37.020Z,-5.45
2023-03-05T03:51:06.727Z,-5.44
2023-03-05T03:53:34.738Z,-5.47
2023-03-05T03:56:02.572Z,-5.52
2023-03-05T03:58:30.610Z,-5.62
2023-03-05T04:00:58.353Z,-5.70
2023-03-05T04:03:27.608Z,-5.67
2023-03-05T04:05:55.406Z,-5.70
2023-03-05T04:08:23.191Z,-5.65
2023-03-05T04:10:50.961Z,-5.62
2023-03-05T04:13:18.752Z,-5.59
2023-03-05T04:15:46.632Z,-5.56
2023-03-05T04:18:14.465Z,-5.54
2023-03-05T04:20:43.705Z,-5.56
2023-03-05T04:23:11.519Z,-5.55
2023-03-05T04:25:39.339Z,-5.54
2023-03-05T04:28:07.354Z,-5.53
2023-03-05T04:30:35.457Z,-5.56
2023-03-05T04:33:04.075Z,-5.43
2023-03-05T04:35:32.261Z,-5.49
2023-03-05T04:38:01.645Z,-5.42
2023-03-05T04:40:29.689Z,-5.45
2023-03-05T04:42:57.602Z,-5.53
2023-03-05T04:45:25.439Z,-5.56
2023-03-05T04:47:53.428Z,-5.56
2023-03-05T04:50:21.521Z,-5.66
2023-03-05T04:52:49.619Z,-5.85
2023-03-05T04:55:19.711Z,-5.77
2023-03-05T04:57:47.730Z,-5.80
2023-03-05T05:00:18.075Z,-5.84
2023-03-05T05:02:48.172Z,-5.72
2023-03-05T05:05:18.524Z,-5.74
2023-03-05T05:07:47.098Z,-5.79
2023-03-05T05:10:16.165Z,-5.83
2023-03-05T05:12:45.294Z,-5.72
2023-03-05T05:15:13.948Z,-5.62
2023-03-05T05:17:41.707Z,-5.67
2023-03-05T05:20:11.947Z,-5.70
2023-03-05T05:22:39.750Z,-5.65
2023-03-05T05:25:08.474Z,-5.59
2023-03-05T05:27:36.257Z,-5.57
2023-03-05T05:30:06.397Z,-5.52
2023-03-05T05:32:34.681Z,-5.48
2023-03-05T05:35:02.457Z,-5.44
2023-03-05T05:37:31.127Z,-5.45
2023-03-05T05:39:59.226Z,-5.47
2023-03-05T05:42:27.886Z,-5.51
2023-03-05T05:44:55.783Z,-5.57
2023-03-05T05:47:24.999Z,-5.64
2023-03-05T05:49:52.843Z,-5.69
2023-03-05T05:52:20.638Z,-5.67
2023-03-05T05:54:48.612Z,-5.77
2023-03-05T05:57:16.651Z,-5.64
2023-03-05T05:59:44.453Z,-5.62
2023-03-05T06:02:12.320Z,-5.61
2023-03-05T06:04:41.572Z,-5.57
2023-03-05T06:07:09.802Z,-5.56
2023-03-05T06:09:37.860Z,-5.49
2023-03-05T06:12:06.694Z,-5.32
2023-03-05T06:14:34.618Z,-5.25
2023-03-05T06:17:02.393Z,-5.15
2023-03-05T06:19:30.505Z,-5.13
2023-03-05T06:21:59.689Z,-5.05
2023-03-05T06:24:27.560Z,-4.87
2023-03-05T06:26:55.447Z,-4.76
2023-03-05T06:29:23.236Z,-4.62
2023-03-05T06:31:51.002Z,-4.47
2023-03-05T06:34:18.822Z,-4.31
2023-03-05T06:36:46.565Z,-3.67
2023-03-05T06:39:16.046Z,-3.39
2023-03-05T06:41:44.669Z,-3.33
2023-03-05T06:44:12.548Z,-3.39
2023-03-05T06:46:40.606Z,-3.46
2023-03-05T06:49:09.593Z,-3.37
2023-03-05T06:51:38.731Z,-3.46
2023-03-05T06:54:08.796Z,-3.49
2023-03-05T06:56:39.829Z,-3.58
2023-03-05T06:59:07.910Z,-3.58
2023-03-05T07:01:36.199Z,-3.51
2023-03-05T07:04:04.486Z,-3.44
2023-03-05T07:06:34.161Z,-3.37
2023-03-05T07:09:02.596Z,-3.03
2023-03-05T07:11:31.186Z,-2.63
2023-03-05T07:14:00.808Z,-2.11
2023-03-05T07:16:30.691Z,-1.69
2023-03-05T07:18:59.870Z,-1.37
2023-03-05T07:21:29.759Z,-1.18
2023-03-05T07:24:00.116Z,-0.41
2023-03-05T07:26:28.831Z,0.36
2023-03-05T07:28:57.610Z,1.00
2023-03-05T07:31:31.554Z,2.06
2023-03-05T07:34:01.116Z,2.84
2023-03-05T07:36:29.138Z,3.58
2023-03-05T07:38:57.168Z,4.25
2023-03-05T07:41:25.147Z,4.71
2023-03-05T07:43:55.125Z,4.50
2023-03-05T07:46:24.963Z,4.69
2023-03-05T07:48:55.518Z,5.42
2023-03-05T07:51:25.086Z,6.04
2023-03-05T07:53:55.179Z,6.63
2023-03-05T07:56:24.035Z,7.50
2023-03-05T07:58:51.839Z,7.49
2023-03-05T08:01:21.120Z,6.83
2023-03-05T08:03:48.901Z,6.59
2023-03-05T08:06:18.247Z,6.47
2023-03-05T08:08:46.014Z,5.85
2023-03-05T08:11:16.058Z,5.82
2023-03-05T08:13:44.888Z,6.24
2023-03-05T08:16:14.865Z,6.06
2023-03-05T08:18:43.606Z,5.86
2023-03-05T08:21:20.538Z,5.45
2023-03-05T08:23:48.366Z,4.86
2023-03-05T08:26:17.885Z,3.97
2023-03-05T08:28:46.089Z,3.66
2023-03-05T08:31:15.898Z,3.40
2023-03-05T08:33:44.407Z,2.94
2023-03-05T08:36:13.272Z,2.41
2023-03-05T08:38:44.593Z,2.35
2023-03-05T08:41:12.445Z,2.13
2023-03-05T08:43:40.577Z,2.07
2023-03-05T08:46:09.053Z,1.94
2023-03-05T08:48:36.894Z,1.69
2023-03-05T08:51:08.419Z,1.36
2023-03-05T08:53:36.637Z,1.37
2023-03-05T08:56:06.730Z,1.30
2023-03-05T08:58:34.602Z,1.57
2023-03-05T09:01:02.605Z,1.94
2023-03-05T09:03:30.628Z,2.43
2023-03-05T09:06:01.284Z,2.75
2023-03-05T09:08:29.286Z,3.28
2023-03-05T09:10:57.444Z,4.17
2023-03-05T09:13:26.537Z,5.41
2023-03-05T09:15:57.901Z,6.35
2023-03-05T09:18:25.705Z,7.36
2023-03-05T09:20:53.826Z,8.41
2023-03-05T09:23:22.225Z,9.44
2023-03-05T09:25:50.763Z,10.31
2023-03-05T09:28:18.801Z,9.69
2023-03-05T09:30:48.048Z,8.56
2023-03-05T09:33:15.969Z,8.51
2023-03-05T09:35:44.144Z,8.04
2023-03-05T09:38:11.941Z,8.04
2023-03-05T09:40:47.122Z,8.02
2023-03-05T09:43:26.892Z,8.52
2023-03-05T09:46:13.649Z,9.25
2023-03-05T09:48:51.461Z,10.02
2023-03-05T09:51:23.950Z,10.49
2023-03-05T09:53:59.840Z,10.41
2023-03-05T09:56:31.785Z,10.47
2023-03-05T09:59:04.702Z,10.55
2023-03-05T10:01:38.934Z,9.37
2023-03-05T10:04:12.373Z,9.46
2023-03-05T10:06:48.359Z,9.83
2023-03-05T10:09:24.825Z,10.54
2023-03-05T10:11:58.064Z,11.46
2023-03-05T10:14:30.245Z,12.56
2023-03-05T10:17:28.277Z,13.13
2023-03-05T10:20:23.607Z,13.30
2023-03-05T10:23:05.271Z,13.89
2023-03-05T10:25:51.252Z,14.84
2023-03-05T10:28:23.523Z,15.99
2023-03-05T10:31:09.893Z,16.10
2023-03-05T10:33:48.731Z,15.73
2023-03-05T10:36:38.984Z,15.79
2023-03-05T10:39:33.140Z,16.80
2023-03-05T10:42:08.074Z,16.24
2023-03-05T10:44:39.727Z,15.76
2023-03-05T10:47:16.951Z,15.77
2023-03-05T10:49:51.339Z,15.86
2023-03-05T10:52:22.227Z,16.48
2023-03-05T10:54:50.754Z,16.11
2023-03-05T10:57:21.288Z,16.54
2023-03-05T10:59:52.384Z,15.56
2023-03-05T11:02:21.873Z,16.23
2023-03-05T11:04:52.568Z,15.46
2023-03-05T11:07:39.614Z,15.45
2023-03-05T11:10:26.194Z,15.91
2023-03-05T11:12:57.922Z,16.17
2023-03-05T11:15:31.360Z,17.82
2023-03-05T11:18:19.395Z,17.52
2023-03-05T11:20:48.968Z,14.65
2023-03-05T11:23:19.255Z,14.48
2023-03-05T11:26:03.039Z,14.38
2023-03-05T11:28:34.324Z,14.12
2023-03-05T11:31:09.425Z,12.90
2023-03-05T11:33:38.878Z,12.38
2023-03-05T11:36:26.930Z,11.48
2023-03-05T11:38:58.799Z,10.74
2023-03-05T11:41:32.222Z,10.19
2023-03-05T11:44:05.743Z,8.80
2023-03-05T11:46:42.005Z,7.52
2023-03-05T11:49:15.863Z,7.09
2023-03-05T11:51:56.769Z,6.46
2023-03-05T11:54:31.703Z,5.96
2023-03-05T11:57:00.902Z,5.47
2023-03-05T11:59:32.723Z,5.26
2023-03-05T12:02:01.217Z,5.10
2023-03-05T12:04:29.016Z,4.97
2023-03-05T12:07:01.176Z,4.53
2023-03-05T12:09:40.885Z,4.25
2023-03-05T12:12:19.663Z,4.10
2023-03-05T12:14:51.690Z,3.90
2023-03-05T12:17:25.784Z,3.72
2023-03-05T12:19:59.656Z,3.45
2023-03-05T12:22:35.356Z,3.38
2023-03-05T12:25:26.873Z,3.60
2023-03-05T12:27:55.020Z,3.58
2023-03-05T12:30:56.581Z,3.97
2023-03-05T12:33:34.214Z,5.17
2023-03-05T12:36:34.859Z,5.37
2023-03-05T12:39:03.362Z,5.36
2023-03-05T12:41:36.536Z,5.05
2023-03-05T12:44:18.799Z,4.66
2023-03-05T12:47:17.800Z,4.17
2023-03-05T12:49:48.308Z,4.39
2023-03-05T12:52:24.549Z,4.61
2023-03-05T12:55:20.313Z,4.71
2023-03-05T12:57:53.719Z,4.16
2023-03-05T13:00:28.233Z,3.74
2023-03-05T13:02:59.828Z,3.36
2023-03-05T13:05:30.782Z,3.18
2023-03-05T13:08:13.457Z,2.82
2023-03-05T13:10:43.305Z,2.68
2023-03-05T13:13:15.890Z,2.46
2023-03-05T13:15:47.240Z,2.33
2023-03-05T13:18:21.481Z,2.37
2023-03-05T13:20:52.226Z,2.27
2023-03-05T13:23:24.794Z,2.28
2023-03-05T13:26:02.167Z,2.34
2023-03-05T13:28:30.940Z,2.28
2023-03-05T13:31:02.310Z,2.03
2023-03-05T13:33:33.349Z,2.01
2023-03-05T13:36:01.674Z,2.21
2023-03-05T13:38:33.393Z,2.30
2023-03-05T13:41:19.484Z,2.18
2023-03-05T13:43:50.445Z,1.92
2023-03-05T13:46:30.330Z,1.84
2023-03-05T13:49:19.187Z,1.92
2023-03-05T13:51:48.881Z,2.02
2023-03-05T13:54:18.884Z,2.01
2023-03-05T13:56:51.644Z,2.02
2023-03-05T13:59:20.743Z,1.95
2023-03-05T14:01:49.461Z,1.93
2023-03-05T14:04:22.279Z,1.75
2023-03-05T14:06:54.439Z,1.58
2023-03-05T14:09:24.662Z,1.26
2023-03-05T14:11:55.221Z,1.12
2023-03-05T14:14:24.238Z,1.04
2023-03-05T14:16:52.184Z,0.97
2023-03-05T14:19:42.398Z,0.80
2023-03-05T14:22:31.346Z,1.00
2023-03-05T14:24:59.165Z,1.07
2023-03-05T14:27:27.203Z,1.20
2023-03-05T14:29:55.391Z,1.03
2023-03-05T14:32:29.251Z,1.37
2023-03-05T14:35:01.175Z,1.50
2023-03-05T14:37:34.230Z,1.26
2023-03-05T14:40:06.041Z,0.99
2023-03-05T14:42:39.025Z,1.14
2023-03-05T14:45:15.941Z,0.99
2023-03-05T14:47:43.769Z,0.96
2023-03-05T14:50:17.302Z,0.79
2023-03-05T14:52:46.148Z,0.74
2023-03-05T14:55:18.382Z,0.86
2023-03-05T14:57:47.015Z,0.97
2023-03-05T15:00:18.546Z,0.86
2023-03-05T15:02:46.444Z,0.84
2023-03-05T15:05:16.154Z,0.77
2023-03-05T15:07:47.232Z,0.79
2023-03-05T15:10:16.498Z,0.72
2023-03-05T15:12:44.672Z,0.59
2023-03-05T15:15:14.378Z,0.53
2023-03-05T15:17:44.546Z,0.41
2023-03-05T15:20:18.463Z,0.31
2023-03-05T15:22:46.337Z,0.28
2023-03-05T15:25:14.607Z,0.23
2023-03-05T15:27:42.458Z,0.21
2023-03-05T15:30:18.620Z,0.33
2023-03-05T15:32:46.346Z,0.28
2023-03-05T15:35:14.211Z,0.30
2023-03-05T15:37:43.448Z,0.37
2023-03-05T15:40:12.505Z,0.33
2023-03-05T15:42:40.500Z,0.26
2023-03-05T15:45:09.085Z,0.21
2023-03-05T15:47:36.865Z,0.19
2023-03-05T15:50:05.021Z,0.12
2023-03-05T15:52:33.137Z,0.05
2023-03-05T15:55:02.769Z,0.01
2023-03-05T15:57:30.541Z,-0.08
2023-03-05T15:59:58.303Z,-0.13
2023-03-05T16:02:26.113Z,-0.16
2023-03-05T16:04:53.904Z,-0.23
2023-03-05T16:07:23.691Z,-0.19
2023-03-05T16:09:53.139Z,-0.17
2023-03-05T16:12:26.594Z,-0.27
2023-03-05T16:14:54.362Z,-0.27
2023-03-05T16:17:24.906Z,-0.31
2023-03-05T16:19:56.693Z,-0.32
2023-03-05T16:22:24.701Z,-0.38
2023-03-05T16:24:52.484Z,-0.37
2023-03-05T16:27:20.244Z,-0.52
2023-03-05T16:29:51.147Z,-0.53
2023-03-05T16:32:18.994Z,-0.60
2023-03-05T16:34:46.804Z,-0.66
2023-03-05T16:37:20.433Z,-0.64
2023-03-05T16:39:48.403Z,-0.77
2023-03-05T16:42:16.875Z,-0.82
2023-03-05T16:44:45.288Z,-0.94
2023-03-05T16:47:14.378Z,-1.05
2023-03-05T16:49:42.395Z,-1.11
2023-03-05T16:52:18.811Z,-1.08
2023-03-05T16:54:47.664Z,-1.21
2023-03-05T16:57:16.341Z,-1.29
2023-03-05T16:59:44.490Z,-1.43
2023-03-05T17:02:15.360Z,-1.46
2023-03-05T17:04:43.197Z,-1.50
2023-03-05T17:07:11.891Z,-1.54
2023-03-05T17:09:39.794Z,-1.52
2023-03-05T17:12:08.641Z,-1.80
2023-03-05T17:14:36.483Z,-1.66
2023-03-05T17:17:04.257Z,-1.73
2023-03-05T17:19:33.346Z,-1.87
2023-03-05T17:22:01.108Z,-1.87
2023-03-05T17:24:30.153Z,-1.98
2023-03-05T17:26:57.966Z,-1.98
2023-03-05T17:29:25.837Z,-1.99
2023-03-05T17:31:54.131Z,-1.96
2023-03-05T17:34:33.299Z,-2.03
2023-03-05T17:37:03.238Z,-2.05
2023-03-05T17:39:31.386Z,-2.16
2023-03-05T17:41:59.842Z,-2.26
2023-03-05T17:44:27.620Z,-2.25
2023-03-05T17:46:55.433Z,-2.26
2023-03-05T17:49:23.535Z,-2.36
2023-03-05T17:51:51.416Z,-2.34
2023-03-05T17:54:20.864Z,-2.42
2023-03-05T17:56:48.838Z,-2.55
2023-03-05T17:59:16.643Z,-2.48
2023-03-05T18:01:44.564Z,-2.48
2023-03-05T18:04:12.816Z,-2.47
2023-03-05T18:06:40.741Z,-2.52
2023-03-05T18:09:08.807Z,-2.50
2023-03-05T18:11:38.380Z,-2.56
2023-03-05T18:14:06.309Z,-2.52
2023-03-05T18:16:35.352Z,-2.48
2023-03-05T18:19:03.121Z,-2.50
2023-03-05T18:21:30.854Z,-2.53
2023-03-05T18:23:58.683Z,-2.50
2023-03-05T18:26:26.587Z,-2.51
2023-03-05T18:28:55.724Z,-2.52
2023-03-05T18:31:23.525Z,-2.58
2023-03-05T18:33:51.632Z,-2.56
2023-03-05T18:36:19.829Z,-2.47
2023-03-05T18:38:47.690Z,-2.50
2023-03-05T18:41:21.190Z,-2.48
2023-03-05T18:43:49.005Z,-2.47
2023-03-05T18:46:18.470Z,-2.62
2023-03-05T18:48:48.015Z,-2.65
2023-03-05T18:51:17.894Z,-2.72
2023-03-05T18:53:45.868Z,-2.77
2023-03-05T18:56:14.140Z,-2.74
2023-03-05T18:58:42.083Z,-2.75
2023-03-05T19:01:09.874Z,-2.74
2023-03-05T19:03:39.088Z,-2.69
2023-03-05T19:06:07.878Z,-2.78
2023-03-05T19:08:35.751Z,-2.90
2023-03-05T19:11:04.637Z,-2.91
2023-03-05T19:13:39.545Z,-2.93
2023-03-05T19:16:09.109Z,-2.98
2023-03-05T19:18:43.839Z,-2.95
2023-03-05T19:21:12.995Z,-3.00
2023-03-05T19:23:40.996Z,-3.06
2023-03-05T19:26:09.190Z,-3.06
2023-03-05T19:28:36.985Z,-3.11
2023-03-05T19:31:04.943Z,-3.13
2023-03-05T19:33:32.794Z,-3.23
2023-03-05T19:36:00.587Z,-3.21
2023-03-05T19:38:29.765Z,-3.19
2023-03-05T19:40:57.483Z,-3.17
2023-03-05T19:43:25.198Z,-3.23
2023-03-05T19:45:53.097Z,-3.26
2023-03-05T19:48:20.877Z,-3.23
2023-03-05T19:50:48.671Z,-3.23
2023-03-05T19:53:16.460Z,-3.13
2023-03-05T19:55:45.585Z,-3.11
2023-03-05T19:58:13.353Z,-3.00
2023-03-05T20:00:41.228Z,-2.98
2023-03-05T20:03:09.279Z,-3.01
2023-03-05T20:05:37.149Z,-2.94
2023-03-05T20:08:05.109Z,-2.93
2023-03-05T20:10:33.001Z,-2.90
2023-03-05T20:13:02.687Z,-2.93
2023-03-05T20:15:30.632Z,-2.90
2023-03-05T20:17:58.767Z,-2.92
2023-03-05T20:20:26.681Z,-2.87
2023-03-05T20:22:54.744Z,-2.89
2023-03-05T20:25:24.852Z,-2.85
2023-03-05T20:27:53.204Z,-2.91
2023-03-05T20:30:22.470Z,-2.93
2023-03-05T20:32:50.324Z,-3.03
2023-03-05T20:35:19.345Z,-3.19
2023-03-05T20:38:00.186Z,-3.29
2023-03-05T20:40:28.223Z,-3.47
2023-03-05T20:42:55.998Z,-3.71
2023-03-05T20:45:25.128Z,-3.65
2023-03-05T20:47:52.878Z,-3.65
2023-03-05T20:50:20.834Z,-3.56
2023-03-05T20:52:48.656Z,-3.52
2023-03-05T20:55:16.436Z,-3.54
2023-03-05T20:57:45.494Z,-3.55
2023-03-05T21:00:14.298Z,-3.54
2023-03-05T21:02:43.531Z,-3.51
2023-03-05T21:05:12.594Z,-3.50
2023-03-05T21:07:40.457Z,-3.64
2023-03-05T21:10:08.748Z,-3.83
2023-03-05T21:12:36.560Z,-3.97
2023-03-05T21:15:04.831Z,-4.16
2023-03-05T21:17:32.624Z,-4.27
2023-03-05T21:20:05.787Z,-4.40
2023-03-05T21:22:33.818Z,-4.50
2023-03-05T21:25:13.363Z,-4.65
2023-03-05T21:27:41.069Z,-4.83
2023-03-05T21:30:10.386Z,-4.95
2023-03-05T21:32:38.420Z,-4.97
2023-03-05T21:35:08.525Z,-5.10
2023-03-05T21:37:42.316Z,-5.24
2023-03-05T21:40:11.920Z,-5.33
2023-03-05T21:42:40.044Z,-5.39
2023-03-05T21:45:09.466Z,-5.38
2023-03-05T21:47:37.186Z,-5.30
2023-03-05T21:50:07.708Z,-5.35
2023-03-05T21:52:35.901Z,-5.34
2023-03-05T21:55:03.773Z,-5.34
2023-03-05T21:57:32.435Z,-5.35
2023-03-05T22:00:00.278Z,-5.33
2023-03-05T22:02:28.264Z,-5.28
2023-03-05T22:04:56.038Z,-5.22
2023-03-05T22:07:25.396Z,-5.18
2023-03-05T22:09:56.000Z,-5.23
2023-03-05T22:12:33.445Z,-5.18
2023-03-05T22:15:01.338Z,-5.11
2023-03-05T22:17:29.081Z,-5.08
2023-03-05T22:19:57.236Z,-5.06
2023-03-05T22:22:26.350Z,-5.05
2023-03-05T22:24:54.162Z,-5.06
2023-03-05T22:27:21.950Z,-5.07
2023-03-05T22:29:49.722Z,-5.02
2023-03-05T22:32:17.439Z,-5.00
2023-03-05T22:34:45.253Z,-4.95
2023-03-05T22:37:13.037Z,-4.93
2023-03-05T22:39:42.200Z,-4.90
2023-03-05T22:42:09.973Z,-4.97
2023-03-05T22:44:37.723Z,-4.97
2023-03-05T22:47:06.143Z,-4.83
2023-03-05T22:49:34.077Z,-5.01
2023-03-05T22:52:01.831Z,-5.05
2023-03-05T22:54:29.623Z,-5.15
2023-03-05T22:56:58.828Z,-5.28
2023-03-05T22:59:26.667Z,-5.39
2023-03-05T23:01:54.493Z,-5.51
2023-03-05T23:04:40.148Z,-5.67
2023-03-05T23:07:08.054Z,-5.93
2023-03-05T23:09:35.873Z,-5.94
2023-03-05T23:12:05.708Z,-6.08
2023-03-05T23:14:33.494Z,-6.29
2023-03-05T23:17:01.206Z,-6.32
2023-03-05T23:19:28.994Z,-6.39
2023-03-05T23:21:56.783Z,-6.42
2023-03-05T23:24:24.516Z,-6.39
2023-03-05T23:26:52.250Z,-6.54
2023-03-05T23:29:21.509Z,-6.63
2023-03-05T23:31:49.292Z,-6.56
2023-03-05T23:34:17.064Z,-6.61
2023-03-05T23:36:44.828Z,-6.62
2023-03-05T23:39:12.602Z,-6.63
2023-03-05T23:41:40.477Z,-6.74
2023-03-05T23:44:08.276Z,-6.71
2023-03-05T23:46:37.441Z,-6.80
2023-03-05T23:49:05.241Z,-6.86
2023-03-05T23:51:32.975Z,-6.79
2023-03-05T23:54:00.879Z,-6.75
2023-03-05T23:56:28.778Z,-6.63
2023-03-05T23:59:00.476Z,-6.47
